createdAt,value
2023-04-12T00:00:11.613Z,93839.03
2023-04-12T00:02:39.810Z,93839.31
2023-04-12T00:05:09.686Z,93836.91
2023-04-12T00:07:38.560Z,93820.19
2023-04-12T00:10:08.150Z,93830.53
2023-04-12T00:12:34.985Z,93821.72
2023-04-12T00:15:01.707Z,93826.13
2023-04-12T00:17:28.624Z,93834.47
2023-04-12T00:19:55.969Z,93820.28
2023-04-12T00:22:22.759Z,93820.53
2023-04-12T00:24:49.503Z,93808.47
2023-04-12T00:27:16.303Z,93784.75
2023-04-12T00:29:43.072Z,93807.16
2023-04-12T00:32:09.866Z,93814.84
2023-04-12T00:34:36.551Z,93802.81
2023-04-12T00:37:03.322Z,93812.03
2023-04-12T00:39:30.101Z,93800.88
2023-04-12T00:41:59.521Z,93803.63
2023-04-12T00:44:26.590Z,93797.41
2023-04-12T00:46:53.391Z,93802.28
2023-04-12T00:49:20.115Z,93797.50
2023-04-12T00:51:46.942Z,93801.66
2023-04-12T00:54:14.513Z,93785.72
2023-04-12T00:56:41.310Z,93793.75
2023-04-12T00:59:08.709Z,93796.78
2023-04-12T01:01:35.432Z,93786.28
2023-04-12T01:04:04.841Z,93794.16
2023-04-12T01:06:46.871Z,93797.06
2023-04-12T01:09:14.037Z,93797.47
2023-04-12T01:12:14.491Z,93794.56
2023-04-12T01:14:50.049Z,93801.91
2023-04-12T01:17:21.003Z,93785.66
2023-04-12T01:20:14.592Z,93785.72
2023-04-12T01:23:09.056Z,93784.47
2023-04-12T01:25:51.433Z,93779.91
2023-04-12T01:28:26.676Z,93780.53
2023-04-12T01:30:54.212Z,93774.34
2023-04-12T01:33:21.340Z,93759.94
2023-04-12T01:35:49.270Z,93770.56
2023-04-12T01:38:16.164Z,93762.06
2023-04-12T01:40:43.138Z,93756.31
2023-04-12T01:43:11.390Z,93749.16
2023-04-12T01:45:38.412Z,93746.59
2023-04-12T01:48:11.482Z,93749.16
2023-04-12T01:50:38.369Z,93739.44
2023-04-12T01:53:37.748Z,93733.53
2023-04-12T01:56:09.031Z,93730.69
2023-04-12T01:58:36.525Z,93734.66
2023-04-12T02:01:03.629Z,93735.31
2023-04-12T02:03:31.652Z,93744.13
2023-04-12T02:05:59.869Z,93739.81
2023-04-12T02:08:27.117Z,93734.63
2023-04-12T02:10:55.041Z,93735.13
2023-04-12T02:13:21.927Z,93726.13
2023-04-12T02:15:49.154Z,93725.50
2023-04-12T02:18:17.614Z,93725.59
2023-04-12T02:20:44.697Z,93716.06
2023-04-12T02:23:11.547Z,93717.38
2023-04-12T02:25:39.622Z,93711.81
2023-04-12T02:28:06.914Z,93713.69
2023-04-12T02:30:33.673Z,93710.66
2023-04-12T02:33:00.445Z,93716.75
2023-04-12T02:35:27.504Z,93703.78
2023-04-12T02:37:55.035Z,93714.91
2023-04-12T02:40:22.020Z,93708.63
2023-04-12T02:42:48.787Z,93705.28
2023-04-12T02:45:15.501Z,93709.56
2023-04-12T02:47:42.290Z,93687.50
2023-04-12T02:50:09.268Z,93708.59
2023-04-12T02:52:36.102Z,93692.06
2023-04-12T02:55:03.236Z,93708.31
2023-04-12T02:57:29.973Z,93699.53
2023-04-12T02:59:56.871Z,93671.75
2023-04-12T03:02:23.981Z,93692.78
2023-04-12T03:04:54.935Z,93690.22
2023-04-12T03:07:22.141Z,93684.09
2023-04-12T03:09:50.555Z,93678.38
2023-04-12T03:12:17.260Z,93682.63
2023-04-12T03:14:44.120Z,93675.44
2023-04-12T03:17:11.092Z,93676.25
2023-04-12T03:19:37.904Z,93676.66
2023-04-12T03:22:05.304Z,93677.00
2023-04-12T03:24:35.715Z,93682.06
2023-04-12T03:27:03.863Z,93676.94
2023-04-12T03:29:31.647Z,93680.38
2023-04-12T03:31:59.574Z,93677.53
2023-04-12T03:34:32.549Z,93669.25
2023-04-12T03:37:01.660Z,93668.09
2023-04-12T03:39:29.038Z,93666.63
2023-04-12T03:41:55.826Z,93658.66
2023-04-12T03:44:22.725Z,93656.09
2023-04-12T03:46:49.833Z,93648.88
2023-04-12T03:49:16.829Z,93656.97
2023-04-12T03:51:43.889Z,93655.03
2023-04-12T03:54:11.701Z,93653.78
2023-04-12T03:56:38.826Z,93642.88
2023-04-12T03:59:07.822Z,93650.91
2023-04-12T04:01:35.142Z,93639.78
2023-04-12T04:04:03.110Z,93637.22
2023-04-12T04:06:30.298Z,93641.28
2023-04-12T04:08:57.855Z,93638.38
2023-04-12T04:11:25.303Z,93643.44
2023-04-12T04:13:52.110Z,93646.84
2023-04-12T04:16:18.949Z,93645.63
2023-04-12T04:18:45.813Z,93650.28
2023-04-12T04:21:14.327Z,93649.34
2023-04-12T04:23:45.122Z,93640.72
2023-04-12T04:26:12.488Z,93655.50
2023-04-12T04:28:40.011Z,93653.22
2023-04-12T04:31:06.637Z,93650.56
2023-04-12T04:33:33.960Z,93655.25
2023-04-12T04:36:01.662Z,93656.22
2023-04-12T04:38:28.541Z,93662.59
2023-04-12T04:40:55.430Z,93666.53
2023-04-12T04:43:22.320Z,93658.16
2023-04-12T04:45:54.570Z,93663.81
2023-04-12T04:48:21.560Z,93646.13
2023-04-12T04:50:48.472Z,93662.53
2023-04-12T04:53:18.634Z,93663.22
2023-04-12T04:55:45.507Z,93669.63
2023-04-12T04:58:12.673Z,93663.75
2023-04-12T05:00:39.241Z,93661.31
2023-04-12T05:03:06.061Z,93667.50
2023-04-12T05:05:32.905Z,93665.03
2023-04-12T05:07:59.677Z,93666.50
2023-04-12T05:10:26.374Z,93668.97
2023-04-12T05:12:52.950Z,93672.59
2023-04-12T05:15:20.932Z,93662.75
2023-04-12T05:17:47.744Z,93662.56
2023-04-12T05:20:14.414Z,93667.03
2023-04-12T05:22:41.090Z,93660.75
2023-04-12T05:25:08.128Z,93661.47
2023-04-12T05:27:34.902Z,93659.44
2023-04-12T05:30:01.617Z,93668.81
2023-04-12T05:32:28.383Z,93670.56
2023-04-12T05:34:56.206Z,93677.19
2023-04-12T05:37:22.903Z,93670.34
2023-04-12T05:39:49.604Z,93666.44
2023-04-12T05:42:16.458Z,93675.78
2023-04-12T05:44:44.991Z,93673.66
2023-04-12T05:47:12.738Z,93672.06
2023-04-12T05:49:39.905Z,93670.88
2023-04-12T05:52:07.088Z,93669.09
2023-04-12T05:54:33.761Z,93668.38
2023-04-12T05:57:00.457Z,93665.94
2023-04-12T05:59:27.166Z,93667.84
2023-04-12T06:01:53.998Z,93667.09
2023-04-12T06:04:21.149Z,93665.13
2023-04-12T06:06:47.944Z,93673.41
2023-04-12T06:09:15.196Z,93671.75
2023-04-12T06:11:42.070Z,93668.06
2023-04-12T06:14:11.248Z,93664.34
2023-04-12T06:16:40.004Z,93662.25
2023-04-12T06:19:08.499Z,93647.94
2023-04-12T06:21:35.215Z,93650.13
2023-04-12T06:24:02.033Z,93638.06
2023-04-12T06:26:37.272Z,93637.56
2023-04-12T06:29:06.259Z,93640.75
2023-04-12T06:31:33.085Z,93633.84
2023-04-12T06:34:01.115Z,93625.38
2023-04-12T06:36:27.812Z,93622.06
2023-04-12T06:38:55.595Z,93617.56
2023-04-12T06:41:22.530Z,93605.19
2023-04-12T06:43:49.212Z,93609.75
2023-04-12T06:46:18.755Z,93596.09
2023-04-12T06:48:45.853Z,93579.75
2023-04-12T06:51:12.554Z,93582.72
2023-04-12T06:53:39.341Z,93574.59
2023-04-12T06:56:06.404Z,93571.25
2023-04-12T06:58:33.141Z,93572.22
2023-04-12T07:01:07.223Z,93566.50
2023-04-12T07:03:35.669Z,93557.91
2023-04-12T07:06:07.765Z,93546.25
2023-04-12T07:08:44.507Z,93552.81
2023-04-12T07:11:20.920Z,93555.78
2023-04-12T07:13:49.214Z,93538.94
2023-04-12T07:16:16.121Z,93518.94
2023-04-12T07:18:42.957Z,93531.50
2023-04-12T07:21:09.735Z,93537.91
2023-04-12T07:23:37.576Z,93521.84
2023-04-12T07:26:04.471Z,93521.69
2023-04-12T07:28:31.251Z,93522.53
2023-04-12T07:30:58.011Z,93519.19
2023-04-12T07:33:26.671Z,93511.75
2023-04-12T07:35:53.565Z,93511.63
2023-04-12T07:38:20.484Z,93512.56
2023-04-12T07:40:49.978Z,93493.94
2023-04-12T07:43:17.044Z,93508.81
2023-04-12T07:45:44.069Z,93494.22
2023-04-12T07:48:12.044Z,93509.88
2023-04-12T07:50:39.718Z,93507.91
2023-04-12T07:53:26.753Z,93504.19
2023-04-12T07:55:54.669Z,93508.81
2023-04-12T07:58:22.992Z,93504.88
2023-04-12T08:00:50.126Z,93497.75
2023-04-12T08:03:18.162Z,93490.66
2023-04-12T08:05:45.720Z,93496.25
2023-04-12T08:08:12.600Z,93488.63
2023-04-12T08:10:39.721Z,93493.88
2023-04-12T08:13:07.440Z,93487.53
2023-04-12T08:15:34.505Z,93481.38
2023-04-12T08:18:02.114Z,93478.69
2023-04-12T08:20:29.298Z,93479.28
2023-04-12T08:22:56.274Z,93488.50
2023-04-12T08:25:23.162Z,93483.56
2023-04-12T08:27:51.374Z,93460.56
2023-04-12T08:30:19.022Z,93482.31
2023-04-12T08:32:45.904Z,93488.03
2023-04-12T08:35:12.837Z,93481.00
2023-04-12T08:37:39.709Z,93486.94
2023-04-12T08:40:07.410Z,93491.31
2023-04-12T08:42:37.814Z,93489.19
2023-04-12T08:45:14.364Z,93480.56
2023-04-12T08:47:42.646Z,93477.41
2023-04-12T08:50:13.266Z,93473.78
2023-04-12T08:52:40.494Z,93471.25
2023-04-12T08:55:08.201Z,93458.97
2023-04-12T08:57:40.992Z,93455.81
2023-04-12T09:00:10.174Z,93456.25
2023-04-12T09:02:43.349Z,93454.25
2023-04-12T09:05:10.404Z,93451.88
2023-04-12T09:07:37.296Z,93441.38
2023-04-12T09:10:05.001Z,93435.00
2023-04-12T09:12:31.975Z,93430.13
2023-04-12T09:15:08.679Z,93435.63
2023-04-12T09:17:37.169Z,93427.97
2023-04-12T09:20:07.578Z,93427.81
2023-04-12T09:22:35.532Z,93424.94
2023-04-12T09:25:03.147Z,93422.06
2023-04-12T09:27:29.898Z,93417.06
2023-04-12T09:30:09.869Z,93413.84
2023-04-12T09:32:36.945Z,93401.78
2023-04-12T09:35:05.697Z,93409.78
2023-04-12T09:37:32.478Z,93402.66
2023-04-12T09:40:07.931Z,93403.69
2023-04-12T09:42:35.507Z,93403.97
2023-04-12T09:45:20.319Z,93401.16
2023-04-12T09:47:47.074Z,93394.09
2023-04-12T09:50:24.469Z,93395.91
2023-04-12T09:52:53.318Z,93382.53
2023-04-12T09:55:22.177Z,93380.81
2023-04-12T09:57:51.064Z,93376.72
2023-04-12T10:00:18.613Z,93383.31
2023-04-12T10:02:47.969Z,93378.00
2023-04-12T10:05:18.315Z,93360.22
2023-04-12T10:07:46.460Z,93377.94
2023-04-12T10:10:18.168Z,93363.41
2023-04-12T10:12:47.031Z,93372.84
2023-04-12T10:15:17.682Z,93366.44
2023-04-12T10:17:54.959Z,93366.53
2023-04-12T10:20:24.190Z,93361.50
2023-04-12T10:22:53.569Z,93355.88
2023-04-12T10:25:22.286Z,93357.69
2023-04-12T10:27:49.751Z,93352.94
2023-04-12T10:30:20.710Z,93346.88
2023-04-12T10:32:47.498Z,93346.25
2023-04-12T10:35:14.399Z,93343.47
2023-04-12T10:38:01.472Z,93333.22
2023-04-12T10:40:32.420Z,93326.06
2023-04-12T10:43:20.776Z,93330.00
2023-04-12T10:45:47.538Z,93322.84
2023-04-12T10:48:40.105Z,93314.81
2023-04-12T10:51:25.877Z,93313.16
2023-04-12T10:53:53.970Z,93319.69
2023-04-12T10:56:33.044Z,93307.50
2023-04-12T10:59:04.635Z,93304.63
2023-04-12T11:01:32.167Z,93302.78
2023-04-12T11:04:16.993Z,93311.03
2023-04-12T11:06:53.824Z,93301.00
2023-04-12T11:09:25.530Z,93297.50
2023-04-12T11:11:58.098Z,93297.56
2023-04-12T11:14:50.584Z,93291.91
2023-04-12T11:17:17.443Z,93290.06
2023-04-12T11:19:46.276Z,93275.34
2023-04-12T11:22:15.023Z,93275.19
2023-04-12T11:24:49.828Z,93283.34
2023-04-12T11:27:17.468Z,93282.91
2023-04-12T11:29:44.945Z,93287.59
2023-04-12T11:32:14.183Z,93288.50
2023-04-12T11:34:42.980Z,93273.47
2023-04-12T11:37:10.664Z,93277.19
2023-04-12T11:39:44.694Z,93266.72
2023-04-12T11:42:19.695Z,93272.13
2023-04-12T11:44:57.633Z,93265.38
2023-04-12T11:47:26.616Z,93264.34
2023-04-12T11:49:55.642Z,93254.56
2023-04-12T11:52:28.201Z,93261.28
2023-04-12T11:54:58.872Z,93253.47
2023-04-12T11:57:25.774Z,93249.63
2023-04-12T11:59:52.815Z,93255.66
2023-04-12T12:02:23.939Z,93237.44
2023-04-12T12:04:52.046Z,93242.81
2023-04-12T12:07:19.672Z,93244.81
2023-04-12T12:09:47.060Z,93237.13
2023-04-12T12:12:14.609Z,93235.31
2023-04-12T12:14:44.284Z,93253.28
2023-04-12T12:17:16.269Z,93243.72
2023-04-12T12:19:44.844Z,93235.09
2023-04-12T12:22:14.973Z,93230.50
2023-04-12T12:25:01.280Z,93235.72
2023-04-12T12:27:35.331Z,93231.31
2023-04-12T12:30:04.467Z,93228.03
2023-04-12T12:32:35.476Z,93222.13
2023-04-12T12:35:02.284Z,93220.88
2023-04-12T12:37:30.070Z,93219.53
2023-04-12T12:40:16.830Z,93215.94
2023-04-12T12:42:55.132Z,93210.88
2023-04-12T12:45:24.313Z,93216.38
2023-04-12T12:47:52.879Z,93216.16
2023-04-12T12:50:24.727Z,93212.94
2023-04-12T12:52:52.454Z,93203.25
2023-04-12T12:55:21.988Z,93189.50
2023-04-12T12:58:06.200Z,93198.84
2023-04-12T13:00:34.871Z,93192.97
2023-04-12T13:03:02.019Z,93184.75
2023-04-12T13:05:29.436Z,93175.13
2023-04-12T13:07:56.220Z,93175.72
2023-04-12T13:10:23.914Z,93173.91
2023-04-12T13:12:50.846Z,93170.84
2023-04-12T13:15:23.093Z,93162.41
2023-04-12T13:17:54.282Z,93168.28
2023-04-12T13:20:22.058Z,93166.72
2023-04-12T13:22:49.621Z,93157.59
2023-04-12T13:25:16.901Z,93151.13
2023-04-12T13:27:43.648Z,93152.16
2023-04-12T13:30:10.660Z,93125.78
2023-04-12T13:32:38.015Z,93138.63
2023-04-12T13:35:06.562Z,93144.50
2023-04-12T13:37:36.237Z,93143.19
2023-04-12T13:40:03.780Z,93138.81
2023-04-12T13:42:30.770Z,93144.97
2023-04-12T13:44:57.535Z,93129.88
2023-04-12T13:47:24.499Z,93133.03
2023-04-12T13:49:51.627Z,93130.38
2023-04-12T13:52:18.445Z,93125.75
2023-04-12T13:54:45.268Z,93131.34
2023-04-12T13:57:12.059Z,93116.25
2023-04-12T13:59:38.932Z,93106.03
2023-04-12T14:02:05.724Z,93099.81
2023-04-12T14:04:32.935Z,93102.44
2023-04-12T14:07:00.027Z,93107.97
2023-04-12T14:09:28.478Z,93115.03
2023-04-12T14:11:57.920Z,93097.06
2023-04-12T14:14:25.648Z,93100.22
2023-04-12T14:16:54.919Z,93098.63
2023-04-12T14:19:22.114Z,93100.94
2023-04-12T14:21:49.205Z,93090.97
2023-04-12T14:24:20.389Z,93099.59
2023-04-12T14:26:47.464Z,93080.28
2023-04-12T14:29:14.226Z,93081.16
2023-04-12T14:31:41.294Z,93090.53
2023-04-12T14:34:10.912Z,93088.69
2023-04-12T14:36:37.799Z,93083.25
2023-04-12T14:39:06.979Z,93082.19
2023-04-12T14:41:35.742Z,93086.66
2023-04-12T14:44:02.601Z,93082.19
2023-04-12T14:46:30.860Z,93081.16
2023-04-12T14:48:59.733Z,93086.63
2023-04-12T14:51:27.869Z,93085.09
2023-04-12T14:53:54.703Z,93082.16
2023-04-12T14:56:25.608Z,93081.94
2023-04-12T14:58:54.751Z,93083.19
2023-04-12T15:01:25.786Z,93070.44
2023-04-12T15:03:53.743Z,93084.00
2023-04-12T15:06:27.195Z,93079.84
2023-04-12T15:08:55.230Z,93083.25
2023-04-12T15:11:27.493Z,93073.06
2023-04-12T15:13:55.551Z,93072.53
2023-04-12T15:16:23.002Z,93073.06
2023-04-12T15:18:51.331Z,93068.91
2023-04-12T15:21:18.242Z,93058.50
2023-04-12T15:23:45.138Z,93057.97
2023-04-12T15:26:14.383Z,93059.78
2023-04-12T15:28:41.811Z,93055.38
2023-04-12T15:31:09.883Z,93055.34
2023-04-12T15:33:37.485Z,93054.84
2023-04-12T15:36:05.056Z,93044.66
2023-04-12T15:38:32.135Z,93038.16
2023-04-12T15:41:00.733Z,93028.50
2023-04-12T15:43:28.227Z,93028.53
2023-04-12T15:45:55.261Z,93032.94
2023-04-12T15:48:23.309Z,93022.25
2023-04-12T15:50:50.979Z,93029.53
2023-04-12T15:53:21.933Z,93028.78
2023-04-12T15:55:49.057Z,93014.69
2023-04-12T15:58:16.094Z,93016.50
2023-04-12T16:00:43.009Z,93028.25
2023-04-12T16:03:10.069Z,93020.69
2023-04-12T16:05:37.123Z,93025.63
2023-04-12T16:08:04.192Z,93026.16
2023-04-12T16:10:31.084Z,93016.75
2023-04-12T16:12:57.967Z,93026.91
2023-04-12T16:15:24.986Z,93024.06
2023-04-12T16:17:54.359Z,93017.78
2023-04-12T16:20:22.153Z,93021.44
2023-04-12T16:22:50.410Z,93007.88
2023-04-12T16:25:17.218Z,93023.00
2023-04-12T16:27:45.059Z,93017.75
2023-04-12T16:30:13.739Z,93016.94
2023-04-12T16:32:40.565Z,93010.88
2023-04-12T16:35:08.244Z,93014.00
2023-04-12T16:37:35.371Z,93004.81
2023-04-12T16:40:02.199Z,93002.97
2023-04-12T16:42:31.846Z,93003.44
2023-04-12T16:44:59.163Z,93005.41
2023-04-12T16:47:26.268Z,93003.56
2023-04-12T16:49:53.170Z,92996.56
2023-04-12T16:52:20.032Z,92994.69
2023-04-12T16:54:46.751Z,92996.03
2023-04-12T16:57:14.706Z,92995.19
2023-04-12T16:59:42.569Z,92994.88
2023-04-12T17:02:09.498Z,92989.03
2023-04-12T17:04:36.633Z,92993.22
2023-04-12T17:07:03.619Z,92984.91
2023-04-12T17:09:30.416Z,92978.63
2023-04-12T17:11:57.407Z,92976.75
2023-04-12T17:14:24.094Z,92974.81
2023-04-12T17:16:51.042Z,92970.34
2023-04-12T17:19:20.304Z,92971.25
2023-04-12T17:21:48.170Z,92962.56
2023-04-12T17:24:15.613Z,92969.75
2023-04-12T17:26:42.645Z,92971.22
2023-04-12T17:29:09.489Z,92975.34
2023-04-12T17:31:36.609Z,92978.03
2023-04-12T17:34:03.984Z,92967.22
2023-04-12T17:36:34.074Z,92978.03
2023-04-12T17:39:01.929Z,92971.91
2023-04-12T17:41:28.924Z,92967.66
2023-04-12T17:43:56.023Z,92961.84
2023-04-12T17:46:24.396Z,92960.72
2023-04-12T17:48:51.253Z,92959.63
2023-04-12T17:51:17.965Z,92956.91
2023-04-12T17:53:45.801Z,92961.47
2023-04-12T17:56:12.534Z,92971.75
2023-04-12T17:58:39.236Z,92965.31
2023-04-12T18:01:06.144Z,92965.19
2023-04-12T18:03:34.580Z,92956.41
2023-04-12T18:06:04.302Z,92972.72
2023-04-12T18:08:31.241Z,92971.78
2023-04-12T18:10:58.093Z,92971.63
2023-04-12T18:13:24.893Z,92965.44
2023-04-12T18:15:51.974Z,92974.53
2023-04-12T18:18:18.751Z,92964.56
2023-04-12T18:20:45.587Z,92971.94
2023-04-12T18:23:12.397Z,92972.03
2023-04-12T18:25:39.161Z,92978.78
2023-04-12T18:28:07.202Z,92969.31
2023-04-12T18:30:34.238Z,92975.56
2023-04-12T18:33:03.392Z,92971.81
2023-04-12T18:35:31.031Z,92975.38
2023-04-12T18:37:57.761Z,92975.47
2023-04-12T18:40:24.457Z,92974.75
2023-04-12T18:42:51.309Z,92979.13
2023-04-12T18:45:19.957Z,92982.84
2023-04-12T18:47:46.820Z,92976.63
2023-04-12T18:50:14.596Z,92970.16
2023-04-12T18:52:41.461Z,92971.75
2023-04-12T18:55:08.536Z,92970.31
2023-04-12T18:57:35.482Z,92966.34
2023-04-12T19:00:05.593Z,92965.94
2023-04-12T19:02:34.460Z,92964.25
2023-04-12T19:05:02.915Z,92956.47
2023-04-12T19:07:29.699Z,92964.25
2023-04-12T19:09:56.451Z,92965.16
2023-04-12T19:12:23.307Z,92962.88
2023-04-12T19:14:49.967Z,92965.59
2023-04-12T19:17:16.818Z,92957.78
2023-04-12T19:19:43.589Z,92950.16
2023-04-12T19:22:10.297Z,92969.03
2023-04-12T19:24:37.457Z,92957.56
2023-04-12T19:27:04.316Z,92961.63
2023-04-12T19:29:31.094Z,92976.69
2023-04-12T19:32:00.780Z,92972.59
2023-04-12T19:34:29.633Z,92953.44
2023-04-12T19:36:58.573Z,92959.06
2023-04-12T19:39:28.290Z,92948.38
2023-04-12T19:41:57.623Z,92947.19
2023-04-12T19:44:26.656Z,92943.94
2023-04-12T19:46:54.499Z,92954.66
2023-04-12T19:49:25.636Z,92943.22
2023-04-12T19:51:52.588Z,92938.38
2023-04-12T19:54:24.539Z,92949.50
2023-04-12T19:56:53.361Z,92945.00
2023-04-12T19:59:24.988Z,92939.53
2023-04-12T20:01:53.014Z,92943.03
2023-04-12T20:04:21.957Z,92941.38
2023-04-12T20:06:51.122Z,92942.72
2023-04-12T20:09:17.960Z,92939.56
2023-04-12T20:11:46.790Z,92941.25
2023-04-12T20:14:15.588Z,92932.44
2023-04-12T20:16:43.962Z,92927.94
2023-04-12T20:19:11.274Z,92927.94
2023-04-12T20:21:39.015Z,92922.03
2023-04-12T20:24:10.070Z,92911.03
2023-04-12T20:26:37.499Z,92912.72
2023-04-12T20:29:08.262Z,92909.78
2023-04-12T20:31:35.040Z,92902.09
2023-04-12T20:34:01.857Z,92914.81
2023-04-12T20:36:29.856Z,92910.53
2023-04-12T20:38:56.747Z,92904.34
2023-04-12T20:41:24.356Z,92891.34
2023-04-12T20:43:52.179Z,92886.19
2023-04-12T20:46:21.685Z,92877.00
2023-04-12T20:48:50.426Z,92871.94
2023-04-12T20:51:21.247Z,92863.47
2023-04-12T20:53:48.382Z,92879.50
2023-04-12T20:56:17.053Z,92876.72
2023-04-12T20:58:46.578Z,92876.78
2023-04-12T21:01:15.059Z,92874.91
2023-04-12T21:03:42.367Z,92870.84
2023-04-12T21:06:10.995Z,92873.00
2023-04-12T21:08:39.717Z,92873.34
2023-04-12T21:11:07.089Z,92875.16
2023-04-12T21:13:34.610Z,92871.53
2023-04-12T21:16:06.513Z,92869.75
2023-04-12T21:18:34.550Z,92866.25
2023-04-12T21:21:03.138Z,92869.97
2023-04-12T21:23:30.244Z,92871.09
2023-04-12T21:25:57.118Z,92871.91
2023-04-12T21:28:23.985Z,92871.91
2023-04-12T21:30:55.384Z,92866.19
2023-04-12T21:33:25.140Z,92875.00
2023-04-12T21:35:53.240Z,92892.28
2023-04-12T21:38:19.872Z,92868.03
2023-04-12T21:40:46.513Z,92876.94
2023-04-12T21:43:13.261Z,92875.91
2023-04-12T21:45:40.135Z,92876.25
2023-04-12T21:48:06.904Z,92891.06
2023-04-12T21:50:33.545Z,92906.63
2023-04-12T21:53:00.160Z,92911.66
2023-04-12T21:55:28.441Z,92915.94
2023-04-12T21:57:55.091Z,92910.09
2023-04-12T22:00:24.857Z,92925.47
2023-04-12T22:02:51.684Z,92930.72
2023-04-12T22:05:18.407Z,92933.78
2023-04-12T22:07:45.247Z,92940.59
2023-04-12T22:10:12.405Z,92943.44
2023-04-12T22:12:39.635Z,92943.66
2023-04-12T22:15:06.757Z,92935.13
2023-04-12T22:17:33.484Z,92942.88
2023-04-12T22:20:00.187Z,92943.88
2023-04-12T22:22:31.772Z,92955.19
2023-04-12T22:24:58.451Z,92938.84
2023-04-12T22:27:26.732Z,92941.97
2023-04-12T22:29:53.774Z,92941.66
2023-04-12T22:32:20.727Z,92946.81
2023-04-12T22:34:54.849Z,92949.38
2023-04-12T22:37:28.444Z,92950.06
2023-04-12T22:39:55.123Z,92951.31
2023-04-12T22:42:26.538Z,92949.84
2023-04-12T22:44:54.258Z,92948.94
2023-04-12T22:47:20.941Z,92945.56
2023-04-12T22:49:50.579Z,92955.09
2023-04-12T22:52:17.750Z,92964.28
2023-04-12T22:54:44.463Z,92945.00
2023-04-12T22:57:11.090Z,92945.34
2023-04-12T22:59:37.714Z,92945.56
2023-04-12T23:02:05.027Z,92942.56
2023-04-12T23:04:31.943Z,92941.41
2023-04-12T23:06:58.644Z,92936.94
2023-04-12T23:09:25.720Z,92934.38
2023-04-12T23:11:52.689Z,92931.22
2023-04-12T23:14:19.385Z,92940.53
2023-04-12T23:16:46.635Z,92934.38
2023-04-12T23:19:14.937Z,92929.22
2023-04-12T23:21:42.061Z,92927.41
2023-04-12T23:24:11.517Z,92939.06
2023-04-12T23:26:38.306Z,92925.50
2023-04-12T23:29:05.094Z,92931.78
2023-04-12T23:31:34.914Z,92924.28
2023-04-12T23:34:03.867Z,92928.09
2023-04-12T23:36:30.989Z,92923.72
2023-04-12T23:39:00.423Z,92927.19
2023-04-12T23:41:31.793Z,92926.53
2023-04-12T23:43:59.294Z,92924.72
2023-04-12T23:46:26.758Z,92921.22
2023-04-12T23:48:53.517Z,92918.19
2023-04-12T23:51:20.198Z,92915.28
2023-04-12T23:53:46.903Z,92914.50
2023-04-12T23:56:13.617Z,92913.72
2023-04-12T23:58:40.354Z,92911.44
